sensor_id;sensor_type;location;lat;lon;timestamp;P1;durP1;ratioP1;P2;durP2;ratioP2
84027;SDS011;74111;45.650;25.612;2023-11-21T00:00:38;16.00;;;11.00;;
84027;SDS011;74111;45.650;25.612;2023-11-21T00:03:26;11.60;;;8.50;;
84027;SDS011;74111;45.650;25.612;2023-11-21T00:05:56;10.00;;;6.70;;
84027;SDS011;74111;45.650;25.612;2023-11-21T00:08:24;11.90;;;7.80;;
84027;SDS011;74111;45.650;25.612;2023-11-21T00:10:52;10.80;;;7.40;;
84027;SDS011;74111;45.650;25.612;2023-11-21T00:13:20;14.40;;;9.20;;
84027;SDS011;74111;45.650;25.612;2023-11-21T00:15:48;16.60;;;10.00;;
84027;SDS011;74111;45.650;25.612;2023-11-21T00:18:17;16.20;;;9.60;;
84027;SDS011;74111;45.650;25.612;2023-11-21T00:20:45;13.90;;;9.20;;
84027;SDS011;74111;45.650;25.612;2023-11-21T00:23:14;8.90;;;6.30;;
84027;SDS011;74111;45.650;25.612;2023-11-21T00:25:42;10.30;;;7.00;;
84027;SDS011;74111;45.650;25.612;2023-11-21T00:28:10;10.50;;;6.80;;
84027;SDS011;74111;45.650;25.612;2023-11-21T00:30:38;6.00;;;4.50;;
84027;SDS011;74111;45.650;25.612;2023-11-21T00:33:06;2.50;;;1.70;;
84027;SDS011;74111;45.650;25.612;2023-11-21T00:38:03;2.50;;;1.50;;
84027;SDS011;74111;45.650;25.612;2023-11-21T00:40:33;1.70;;;1.30;;
84027;SDS011;74111;45.650;25.612;2023-11-21T00:43:01;1.80;;;1.20;;
84027;SDS011;74111;45.650;25.612;2023-11-21T00:45:33;1.50;;;1.10;;
84027;SDS011;74111;45.650;25.612;2023-11-21T00:48:01;2.10;;;1.10;;
84027;SDS011;74111;45.650;25.612;2023-11-21T00:50:29;3.10;;;1.60;;
84027;SDS011;74111;45.650;25.612;2023-11-21T00:52:57;1.90;;;1.50;;
84027;SDS011;74111;45.650;25.612;2023-11-21T00:55:25;1.70;;;1.30;;
84027;SDS011;74111;45.650;25.612;2023-11-21T00:57:55;1.70;;;1.30;;
84027;SDS011;74111;45.650;25.612;2023-11-21T01:00:24;2.30;;;1.40;;
84027;SDS011;74111;45.650;25.612;2023-11-21T01:02:53;2.40;;;1.30;;
84027;SDS011;74111;45.650;25.612;2023-11-21T01:05:21;2.10;;;1.40;;
84027;SDS011;74111;45.650;25.612;2023-11-21T01:07:49;6.80;;;1.60;;
84027;SDS011;74111;45.650;25.612;2023-11-21T01:10:18;1.30;;;0.80;;
84027;SDS011;74111;45.650;25.612;2023-11-21T01:12:46;2.00;;;1.40;;
84027;SDS011;74111;45.650;25.612;2023-11-21T01:15:14;0.90;;;0.80;;
84027;SDS011;74111;45.650;25.612;2023-11-21T01:17:43;2.00;;;1.00;;
84027;SDS011;74111;45.650;25.612;2023-11-21T01:20:11;3.70;;;1.40;;
84027;SDS011;74111;45.650;25.612;2023-11-21T01:22:42;2.20;;;1.50;;
84027;SDS011;74111;45.650;25.612;2023-11-21T01:27:39;1.60;;;1.20;;
84027;SDS011;74111;45.650;25.612;2023-11-21T01:30:07;1.40;;;1.20;;
84027;SDS011;74111;45.650;25.612;2023-11-21T01:32:38;1.40;;;0.80;;
84027;SDS011;74111;45.650;25.612;2023-11-21T01:35:08;2.80;;;1.30;;
84027;SDS011;74111;45.650;25.612;2023-11-21T01:37:37;3.70;;;1.60;;
84027;SDS011;74111;45.650;25.612;2023-11-21T01:42:38;1.40;;;1.20;;
84027;SDS011;74111;45.650;25.612;2023-11-21T01:45:07;1.90;;;1.20;;
84027;SDS011;74111;45.650;25.612;2023-11-21T01:47:35;1.20;;;1.10;;
84027;SDS011;74111;45.650;25.612;2023-11-21T01:50:04;3.70;;;1.20;;
84027;SDS011;74111;45.650;25.612;2023-11-21T01:52:34;2.50;;;1.30;;
84027;SDS011;74111;45.650;25.612;2023-11-21T01:55:04;2.10;;;1.20;;
84027;SDS011;74111;45.650;25.612;2023-11-21T01:57:35;2.80;;;1.50;;
84027;SDS011;74111;45.650;25.612;2023-11-21T02:00:05;1.80;;;1.50;;
84027;SDS011;74111;45.650;25.612;2023-11-21T02:02:43;3.80;;;1.50;;
84027;SDS011;74111;45.650;25.612;2023-11-21T02:05:14;3.00;;;1.60;;
84027;SDS011;74111;45.650;25.612;2023-11-21T02:07:45;2.50;;;1.30;;
84027;SDS011;74111;45.650;25.612;2023-11-21T02:10:17;5.30;;;1.90;;
84027;SDS011;74111;45.650;25.612;2023-11-21T02:12:47;2.80;;;1.10;;
84027;SDS011;74111;45.650;25.612;2023-11-21T02:15:16;4.30;;;1.60;;
84027;SDS011;74111;45.650;25.612;2023-11-21T02:17:49;2.40;;;1.60;;
84027;SDS011;74111;45.650;25.612;2023-11-21T02:20:22;2.10;;;1.30;;
84027;SDS011;74111;45.650;25.612;2023-11-21T02:22:54;2.70;;;1.40;;
84027;SDS011;74111;45.650;25.612;2023-11-21T02:25:28;1.40;;;1.00;;
84027;SDS011;74111;45.650;25.612;2023-11-21T02:27:58;2.00;;;1.40;;
84027;SDS011;74111;45.650;25.612;2023-11-21T02:30:28;3.50;;;1.30;;
84027;SDS011;74111;45.650;25.612;2023-11-21T02:33:00;1.80;;;1.30;;
84027;SDS011;74111;45.650;25.612;2023-11-21T02:35:29;2.50;;;1.60;;
84027;SDS011;74111;45.650;25.612;2023-11-21T02:37:59;3.20;;;1.60;;
84027;SDS011;74111;45.650;25.612;2023-11-21T02:40:28;2.00;;;1.50;;
84027;SDS011;74111;45.650;25.612;2023-11-21T02:42:57;2.00;;;1.00;;
84027;SDS011;74111;45.650;25.612;2023-11-21T02:45:27;1.90;;;1.10;;
84027;SDS011;74111;45.650;25.612;2023-11-21T02:47:55;2.70;;;1.30;;
84027;SDS011;74111;45.650;25.612;2023-11-21T02:50:26;2.20;;;1.10;;
84027;SDS011;74111;45.650;25.612;2023-11-21T02:52:55;1.70;;;1.20;;
84027;SDS011;74111;45.650;25.612;2023-11-21T02:55:26;2.10;;;1.20;;
84027;SDS011;74111;45.650;25.612;2023-11-21T02:57:55;2.50;;;1.40;;
84027;SDS011;74111;45.650;25.612;2023-11-21T03:00:24;3.00;;;1.10;;
84027;SDS011;74111;45.650;25.612;2023-11-21T03:02:55;2.00;;;1.20;;
84027;SDS011;74111;45.650;25.612;2023-11-21T03:05:26;3.50;;;1.30;;
84027;SDS011;74111;45.650;25.612;2023-11-21T03:07:54;1.90;;;1.00;;
84027;SDS011;74111;45.650;25.612;2023-11-21T03:10:23;1.60;;;1.20;;
84027;SDS011;74111;45.650;25.612;2023-11-21T03:12:51;3.80;;;1.60;;
84027;SDS011;74111;45.650;25.612;2023-11-21T03:15:20;1.80;;;1.20;;
84027;SDS011;74111;45.650;25.612;2023-11-21T03:17:48;1.30;;;1.10;;
84027;SDS011;74111;45.650;25.612;2023-11-21T03:20:17;1.50;;;1.10;;
84027;SDS011;74111;45.650;25.612;2023-11-21T03:22:45;2.80;;;1.40;;
84027;SDS011;74111;45.650;25.612;2023-11-21T03:25:13;2.10;;;1.60;;
84027;SDS011;74111;45.650;25.612;2023-11-21T03:27:42;4.50;;;1.70;;
84027;SDS011;74111;45.650;25.612;2023-11-21T03:30:12;2.40;;;1.50;;
84027;SDS011;74111;45.650;25.612;2023-11-21T03:32:40;2.30;;;1.60;;
84027;SDS011;74111;45.650;25.612;2023-11-21T03:35:08;2.50;;;1.80;;
84027;SDS011;74111;45.650;25.612;2023-11-21T03:37:37;2.50;;;1.70;;
84027;SDS011;74111;45.650;25.612;2023-11-21T03:40:09;2.70;;;1.70;;
84027;SDS011;74111;45.650;25.612;2023-11-21T03:42:37;2.20;;;1.60;;
84027;SDS011;74111;45.650;25.612;2023-11-21T03:45:06;2.90;;;1.80;;
84027;SDS011;74111;45.650;25.612;2023-11-21T03:47:34;2.00;;;1.30;;
84027;SDS011;74111;45.650;25.612;2023-11-21T03:50:03;3.30;;;1.50;;
84027;SDS011;74111;45.650;25.612;2023-11-21T03:52:31;2.00;;;1.10;;
84027;SDS011;74111;45.650;25.612;2023-11-21T03:55:00;2.70;;;1.30;;
84027;SDS011;74111;45.650;25.612;2023-11-21T03:57:28;2.30;;;1.20;;
84027;SDS011;74111;45.650;25.612;2023-11-21T03:59:57;1.90;;;1.00;;
84027;SDS011;74111;45.650;25.612;2023-11-21T04:02:26;2.20;;;1.50;;
84027;SDS011;74111;45.650;25.612;2023-11-21T04:04:56;1.40;;;1.20;;
84027;SDS011;74111;45.650;25.612;2023-11-21T04:07:24;1.60;;;1.20;;
84027;SDS011;74111;45.650;25.612;2023-11-21T04:09:52;3.20;;;1.30;;
84027;SDS011;74111;45.650;25.612;2023-11-21T04:12:21;2.80;;;1.40;;
84027;SDS011;74111;45.650;25.612;2023-11-21T04:14:49;2.20;;;1.60;;
84027;SDS011;74111;45.650;25.612;2023-11-21T04:17:20;2.60;;;1.50;;
84027;SDS011;74111;45.650;25.612;2023-11-21T04:19:48;2.90;;;1.40;;
84027;SDS011;74111;45.650;25.612;2023-11-21T04:22:16;3.80;;;1.40;;
84027;SDS011;74111;45.650;25.612;2023-11-21T04:27:13;2.70;;;1.70;;
84027;SDS011;74111;45.650;25.612;2023-11-21T04:29:42;2.10;;;1.50;;
84027;SDS011;74111;45.650;25.612;2023-11-21T04:32:10;4.10;;;1.70;;
84027;SDS011;74111;45.650;25.612;2023-11-21T04:34:38;1.30;;;1.10;;
84027;SDS011;74111;45.650;25.612;2023-11-21T04:37:06;1.80;;;1.20;;
84027;SDS011;74111;45.650;25.612;2023-11-21T04:39:34;1.80;;;1.50;;
84027;SDS011;74111;45.650;25.612;2023-11-21T04:42:02;3.90;;;1.30;;
84027;SDS011;74111;45.650;25.612;2023-11-21T04:44:31;2.40;;;1.70;;
84027;SDS011;74111;45.650;25.612;2023-11-21T04:46:59;2.20;;;1.30;;
84027;SDS011;74111;45.650;25.612;2023-11-21T04:49:27;1.60;;;1.00;;
84027;SDS011;74111;45.650;25.612;2023-11-21T04:51:55;2.90;;;1.20;;
84027;SDS011;74111;45.650;25.612;2023-11-21T04:54:23;2.40;;;1.40;;
84027;SDS011;74111;45.650;25.612;2023-11-21T04:56:55;1.50;;;1.20;;
84027;SDS011;74111;45.650;25.612;2023-11-21T04:59:23;1.90;;;1.30;;
84027;SDS011;74111;45.650;25.612;2023-11-21T05:01:54;1.70;;;1.30;;
84027;SDS011;74111;45.650;25.612;2023-11-21T05:04:23;2.80;;;1.40;;
84027;SDS011;74111;45.650;25.612;2023-11-21T05:06:51;1.70;;;1.60;;
84027;SDS011;74111;45.650;25.612;2023-11-21T05:09:19;2.30;;;1.40;;
84027;SDS011;74111;45.650;25.612;2023-11-21T05:11:47;2.00;;;1.50;;
84027;SDS011;74111;45.650;25.612;2023-11-21T05:14:15;2.20;;;1.30;;
84027;SDS011;74111;45.650;25.612;2023-11-21T05:16:43;1.50;;;1.20;;
84027;SDS011;74111;45.650;25.612;2023-11-21T05:19:12;2.90;;;1.60;;
84027;SDS011;74111;45.650;25.612;2023-11-21T05:24:09;4.20;;;1.70;;
84027;SDS011;74111;45.650;25.612;2023-11-21T05:26:37;2.80;;;1.50;;
84027;SDS011;74111;45.650;25.612;2023-11-21T05:29:07;2.90;;;2.10;;
84027;SDS011;74111;45.650;25.612;2023-11-21T05:31:35;9.10;;;3.80;;
84027;SDS011;74111;45.650;25.612;2023-11-21T05:34:04;4.30;;;2.80;;
84027;SDS011;74111;45.650;25.612;2023-11-21T05:36:35;4.50;;;3.30;;
84027;SDS011;74111;45.650;25.612;2023-11-21T05:39:03;7.80;;;3.00;;
84027;SDS011;74111;45.650;25.612;2023-11-21T05:41:32;6.40;;;3.40;;
84027;SDS011;74111;45.650;25.612;2023-11-21T05:44:00;5.70;;;3.40;;
84027;SDS011;74111;45.650;25.612;2023-11-21T05:46:28;7.00;;;3.80;;
84027;SDS011;74111;45.650;25.612;2023-11-21T05:48:56;4.30;;;3.20;;
84027;SDS011;74111;45.650;25.612;2023-11-21T05:51:25;5.70;;;3.50;;
84027;SDS011;74111;45.650;25.612;2023-11-21T05:53:53;6.00;;;3.60;;
84027;SDS011;74111;45.650;25.612;2023-11-21T05:56:21;4.40;;;3.00;;
84027;SDS011;74111;45.650;25.612;2023-11-21T05:58:49;7.10;;;3.80;;
84027;SDS011;74111;45.650;25.612;2023-11-21T06:01:19;7.70;;;4.50;;
84027;SDS011;74111;45.650;25.612;2023-11-21T06:03:47;7.00;;;3.90;;
84027;SDS011;74111;45.650;25.612;2023-11-21T06:06:16;8.20;;;4.90;;
84027;SDS011;74111;45.650;25.612;2023-11-21T06:08:44;6.20;;;4.50;;
84027;SDS011;74111;45.650;25.612;2023-11-21T06:11:12;11.40;;;6.10;;
84027;SDS011;74111;45.650;25.612;2023-11-21T06:13:41;7.30;;;4.70;;
84027;SDS011;74111;45.650;25.612;2023-11-21T06:16:10;5.70;;;3.90;;
84027;SDS011;74111;45.650;25.612;2023-11-21T06:18:38;3.60;;;2.40;;
84027;SDS011;74111;45.650;25.612;2023-11-21T06:21:09;4.50;;;2.50;;
84027;SDS011;74111;45.650;25.612;2023-11-21T06:23:37;5.70;;;3.40;;
84027;SDS011;74111;45.650;25.612;2023-11-21T06:26:05;5.70;;;4.10;;
84027;SDS011;74111;45.650;25.612;2023-11-21T06:28:33;7.10;;;4.00;;
84027;SDS011;74111;45.650;25.612;2023-11-21T06:31:02;5.70;;;3.60;;
84027;SDS011;74111;45.650;25.612;2023-11-21T06:33:33;7.20;;;4.30;;
84027;SDS011;74111;45.650;25.612;2023-11-21T06:36:01;6.50;;;4.30;;
84027;SDS011;74111;45.650;25.612;2023-11-21T06:38:30;7.20;;;4.30;;
84027;SDS011;74111;45.650;25.612;2023-11-21T06:41:00;5.90;;;4.50;;
84027;SDS011;74111;45.650;25.612;2023-11-21T06:43:34;9.50;;;4.30;;
84027;SDS011;74111;45.650;25.612;2023-11-21T06:46:03;5.90;;;4.80;;
84027;SDS011;74111;45.650;25.612;2023-11-21T06:48:32;7.90;;;4.70;;
84027;SDS011;74111;45.650;25.612;2023-11-21T06:51:00;7.70;;;6.10;;
84027;SDS011;74111;45.650;25.612;2023-11-21T06:53:28;8.90;;;5.60;;
84027;SDS011;74111;45.650;25.612;2023-11-21T06:55:56;9.40;;;4.70;;
84027;SDS011;74111;45.650;25.612;2023-11-21T06:58:24;10.00;;;6.10;;
84027;SDS011;74111;45.650;25.612;2023-11-21T07:00:54;8.20;;;6.00;;
84027;SDS011;74111;45.650;25.612;2023-11-21T07:03:23;10.40;;;5.20;;
84027;SDS011;74111;45.650;25.612;2023-11-21T07:05:52;9.10;;;5.40;;
84027;SDS011;74111;45.650;25.612;2023-11-21T07:08:20;7.60;;;4.60;;
84027;SDS011;74111;45.650;25.612;2023-11-21T07:10:48;8.80;;;4.70;;
84027;SDS011;74111;45.650;25.612;2023-11-21T07:13:17;8.80;;;5.40;;
84027;SDS011;74111;45.650;25.612;2023-11-21T07:15:45;6.60;;;4.90;;
84027;SDS011;74111;45.650;25.612;2023-11-21T07:18:13;8.20;;;5.30;;
84027;SDS011;74111;45.650;25.612;2023-11-21T07:20:42;7.40;;;4.80;;
84027;SDS011;74111;45.650;25.612;2023-11-21T07:23:10;5.70;;;3.10;;
84027;SDS011;74111;45.650;25.612;2023-11-21T07:25:38;3.80;;;3.10;;
84027;SDS011;74111;45.650;25.612;2023-11-21T07:28:06;5.90;;;4.30;;
84027;SDS011;74111;45.650;25.612;2023-11-21T07:30:34;5.80;;;3.30;;
84027;SDS011;74111;45.650;25.612;2023-11-21T07:33:02;9.40;;;5.00;;
84027;SDS011;74111;45.650;25.612;2023-11-21T07:35:30;7.60;;;3.40;;
84027;SDS011;74111;45.650;25.612;2023-11-21T07:37:58;4.90;;;3.20;;
84027;SDS011;74111;45.650;25.612;2023-11-21T07:40:27;7.40;;;3.80;;
84027;SDS011;74111;45.650;25.612;2023-11-21T07:42:58;6.50;;;3.90;;
84027;SDS011;74111;45.650;25.612;2023-11-21T07:45:28;6.20;;;3.70;;
84027;SDS011;74111;45.650;25.612;2023-11-21T07:47:57;8.10;;;3.70;;
84027;SDS011;74111;45.650;25.612;2023-11-21T07:50:26;8.10;;;3.80;;
84027;SDS011;74111;45.650;25.612;2023-11-21T07:52:55;4.50;;;3.10;;
84027;SDS011;74111;45.650;25.612;2023-11-21T07:55:23;7.60;;;2.70;;
84027;SDS011;74111;45.650;25.612;2023-11-21T07:57:53;5.70;;;3.40;;
84027;SDS011;74111;45.650;25.612;2023-11-21T08:00:21;3.70;;;2.50;;
84027;SDS011;74111;45.650;25.612;2023-11-21T08:02:49;3.80;;;2.70;;
84027;SDS011;74111;45.650;25.612;2023-11-21T08:05:18;3.80;;;2.30;;
84027;SDS011;74111;45.650;25.612;2023-11-21T08:07:59;6.40;;;2.10;;
84027;SDS011;74111;45.650;25.612;2023-11-21T08:10:27;9.10;;;3.10;;
84027;SDS011;74111;45.650;25.612;2023-11-21T08:12:55;6.60;;;2.80;;
84027;SDS011;74111;45.650;25.612;2023-11-21T08:15:24;4.00;;;2.60;;
84027;SDS011;74111;45.650;25.612;2023-11-21T08:17:52;5.10;;;2.90;;
84027;SDS011;74111;45.650;25.612;2023-11-21T08:20:22;5.90;;;3.10;;
84027;SDS011;74111;45.650;25.612;2023-11-21T08:22:51;5.20;;;3.80;;
84027;SDS011;74111;45.650;25.612;2023-11-21T08:25:24;16.70;;;4.40;;
84027;SDS011;74111;45.650;25.612;2023-11-21T08:27:53;8.20;;;2.90;;
84027;SDS011;74111;45.650;25.612;2023-11-21T08:30:21;7.90;;;3.80;;
84027;SDS011;74111;45.650;25.612;2023-11-21T08:32:52;5.30;;;3.50;;
84027;SDS011;74111;45.650;25.612;2023-11-21T08:35:21;8.10;;;3.70;;
84027;SDS011;74111;45.650;25.612;2023-11-21T08:37:53;6.50;;;3.30;;
84027;SDS011;74111;45.650;25.612;2023-11-21T08:40:21;9.40;;;4.30;;
84027;SDS011;74111;45.650;25.612;2023-11-21T08:42:49;4.60;;;3.30;;
84027;SDS011;74111;45.650;25.612;2023-11-21T08:45:19;5.00;;;3.10;;
84027;SDS011;74111;45.650;25.612;2023-11-21T08:47:47;12.80;;;3.10;;
84027;SDS011;74111;45.650;25.612;2023-11-21T08:50:16;7.20;;;2.70;;
84027;SDS011;74111;45.650;25.612;2023-11-21T08:52:44;4.90;;;2.60;;
84027;SDS011;74111;45.650;25.612;2023-11-21T08:55:14;4.30;;;2.80;;
84027;SDS011;74111;45.650;25.612;2023-11-21T08:57:43;5.10;;;2.80;;
84027;SDS011;74111;45.650;25.612;2023-11-21T09:00:13;6.50;;;2.90;;
84027;SDS011;74111;45.650;25.612;2023-11-21T09:02:43;5.00;;;2.50;;
84027;SDS011;74111;45.650;25.612;2023-11-21T09:05:13;6.90;;;2.90;;
84027;SDS011;74111;45.650;25.612;2023-11-21T09:07:42;7.40;;;3.80;;
84027;SDS011;74111;45.650;25.612;2023-11-21T09:10:10;5.90;;;4.20;;
84027;SDS011;74111;45.650;25.612;2023-11-21T09:12:38;5.60;;;3.40;;
84027;SDS011;74111;45.650;25.612;2023-11-21T09:15:07;6.70;;;4.10;;
84027;SDS011;74111;45.650;25.612;2023-11-21T09:17:37;9.00;;;3.60;;
84027;SDS011;74111;45.650;25.612;2023-11-21T09:22:38;7.40;;;3.20;;
84027;SDS011;74111;45.650;25.612;2023-11-21T09:25:07;8.00;;;3.10;;
84027;SDS011;74111;45.650;25.612;2023-11-21T09:27:36;8.70;;;3.70;;
84027;SDS011;74111;45.650;25.612;2023-11-21T09:30:04;5.30;;;3.10;;
84027;SDS011;74111;45.650;25.612;2023-11-21T09:32:33;7.30;;;3.90;;
84027;SDS011;74111;45.650;25.612;2023-11-21T09:35:06;10.80;;;5.20;;
84027;SDS011;74111;45.650;25.612;2023-11-21T09:37:37;9.60;;;5.60;;
84027;SDS011;74111;45.650;25.612;2023-11-21T09:40:06;8.70;;;4.60;;
84027;SDS011;74111;45.650;25.612;2023-11-21T09:42:43;10.20;;;4.90;;
84027;SDS011;74111;45.650;25.612;2023-11-21T09:45:36;8.00;;;4.00;;
84027;SDS011;74111;45.650;25.612;2023-11-21T09:48:07;13.50;;;4.90;;
84027;SDS011;74111;45.650;25.612;2023-11-21T09:50:39;11.50;;;4.90;;
84027;SDS011;74111;45.650;25.612;2023-11-21T09:53:22;7.00;;;3.70;;
84027;SDS011;74111;45.650;25.612;2023-11-21T09:55:52;7.40;;;3.90;;
84027;SDS011;74111;45.650;25.612;2023-11-21T09:58:21;7.90;;;3.70;;
84027;SDS011;74111;45.650;25.612;2023-11-21T10:00:53;4.70;;;3.00;;
84027;SDS011;74111;45.650;25.612;2023-11-21T10:03:26;8.70;;;3.40;;
84027;SDS011;74111;45.650;25.612;2023-11-21T10:05:55;4.10;;;2.80;;
84027;SDS011;74111;45.650;25.612;2023-11-21T10:08:27;6.90;;;3.10;;
84027;SDS011;74111;45.650;25.612;2023-11-21T10:11:13;3.10;;;2.30;;
84027;SDS011;74111;45.650;25.612;2023-11-21T10:13:43;8.80;;;3.10;;
84027;SDS011;74111;45.650;25.612;2023-11-21T10:16:14;5.10;;;2.70;;
84027;SDS011;74111;45.650;25.612;2023-11-21T10:18:50;3.40;;;2.20;;
84027;SDS011;74111;45.650;25.612;2023-11-21T10:21:20;5.10;;;2.00;;
84027;SDS011;74111;45.650;25.612;2023-11-21T10:23:50;3.90;;;2.10;;
84027;SDS011;74111;45.650;25.612;2023-11-21T10:26:21;3.80;;;1.90;;
84027;SDS011;74111;45.650;25.612;2023-11-21T10:29:02;3.80;;;2.10;;
84027;SDS011;74111;45.650;25.612;2023-11-21T10:31:33;4.20;;;2.40;;
84027;SDS011;74111;45.650;25.612;2023-11-21T10:34:15;3.30;;;2.10;;
84027;SDS011;74111;45.650;25.612;2023-11-21T10:36:44;5.10;;;2.00;;
84027;SDS011;74111;45.650;25.612;2023-11-21T10:39:14;3.80;;;2.20;;
84027;SDS011;74111;45.650;25.612;2023-11-21T10:41:47;6.60;;;2.50;;
84027;SDS011;74111;45.650;25.612;2023-11-21T10:44:16;6.80;;;2.40;;
84027;SDS011;74111;45.650;25.612;2023-11-21T10:46:51;6.40;;;2.60;;
84027;SDS011;74111;45.650;25.612;2023-11-21T10:49:27;4.50;;;2.40;;
84027;SDS011;74111;45.650;25.612;2023-11-21T10:51:56;7.20;;;2.80;;
84027;SDS011;74111;45.650;25.612;2023-11-21T10:54:25;6.70;;;2.60;;
84027;SDS011;74111;45.650;25.612;2023-11-21T10:56:56;5.40;;;2.20;;
84027;SDS011;74111;45.650;25.612;2023-11-21T10:59:30;2.80;;;2.20;;
84027;SDS011;74111;45.650;25.612;2023-11-21T11:02:01;4.60;;;2.60;;
84027;SDS011;74111;45.650;25.612;2023-11-21T11:04:38;4.00;;;2.30;;
84027;SDS011;74111;45.650;25.612;2023-11-21T11:07:09;2.90;;;2.10;;
84027;SDS011;74111;45.650;25.612;2023-11-21T11:09:40;3.80;;;2.20;;
84027;SDS011;74111;45.650;25.612;2023-11-21T11:12:12;6.90;;;3.00;;
84027;SDS011;74111;45.650;25.612;2023-11-21T11:14:42;7.00;;;2.90;;
84027;SDS011;74111;45.650;25.612;2023-11-21T11:17:11;5.80;;;2.70;;
84027;SDS011;74111;45.650;25.612;2023-11-21T11:19:41;6.80;;;2.70;;
84027;SDS011;74111;45.650;25.612;2023-11-21T11:22:20;4.90;;;2.70;;
84027;SDS011;74111;45.650;25.612;2023-11-21T11:33:18;4.80;;;2.70;;
84027;SDS011;74111;45.650;25.612;2023-11-21T11:36:22;4.50;;;2.10;;
84027;SDS011;74111;45.650;25.612;2023-11-21T11:39:29;7.20;;;2.60;;
84027;SDS011;74111;45.650;25.612;2023-11-21T11:41:59;3.40;;;2.00;;
84027;SDS011;74111;45.650;25.612;2023-11-21T11:50:10;4.80;;;2.80;;
84027;SDS011;74111;45.650;25.612;2023-11-21T11:52:46;4.90;;;2.50;;
84027;SDS011;74111;45.650;25.612;2023-11-21T11:55:17;9.50;;;3.30;;
84027;SDS011;74111;45.650;25.612;2023-11-21T11:57:50;4.50;;;2.50;;
84027;SDS011;74111;45.650;25.612;2023-11-21T12:02:57;6.70;;;2.50;;
84027;SDS011;74111;45.650;25.612;2023-11-21T12:05:29;6.40;;;2.70;;
84027;SDS011;74111;45.650;25.612;2023-11-21T12:08:04;14.10;;;3.10;;
84027;SDS011;74111;45.650;25.612;2023-11-21T12:10:35;5.30;;;2.60;;
84027;SDS011;74111;45.650;25.612;2023-11-21T12:13:06;6.50;;;2.30;;
84027;SDS011;74111;45.650;25.612;2023-11-21T12:15:36;6.10;;;3.00;;
84027;SDS011;74111;45.650;25.612;2023-11-21T12:18:05;6.40;;;2.60;;
84027;SDS011;74111;45.650;25.612;2023-11-21T12:20:34;4.30;;;2.20;;
84027;SDS011;74111;45.650;25.612;2023-11-21T12:23:07;13.90;;;2.90;;
84027;SDS011;74111;45.650;25.612;2023-11-21T12:25:37;6.40;;;2.30;;
84027;SDS011;74111;45.650;25.612;2023-11-21T12:28:07;8.70;;;2.80;;
84027;SDS011;74111;45.650;25.612;2023-11-21T12:33:05;4.20;;;2.70;;
84027;SDS011;74111;45.650;25.612;2023-11-21T12:35:37;2.50;;;2.20;;
84027;SDS011;74111;45.650;25.612;2023-11-21T12:38:05;5.40;;;3.00;;
84027;SDS011;74111;45.650;25.612;2023-11-21T12:40:34;3.70;;;2.90;;
84027;SDS011;74111;45.650;25.612;2023-11-21T12:43:02;4.50;;;2.90;;
84027;SDS011;74111;45.650;25.612;2023-11-21T12:45:32;3.10;;;1.90;;
84027;SDS011;74111;45.650;25.612;2023-11-21T12:48:02;4.80;;;2.00;;
84027;SDS011;74111;45.650;25.612;2023-11-21T12:50:37;6.90;;;2.30;;
84027;SDS011;74111;45.650;25.612;2023-11-21T12:53:07;4.40;;;2.10;;
84027;SDS011;74111;45.650;25.612;2023-11-21T12:55:38;2.90;;;1.70;;
84027;SDS011;74111;45.650;25.612;2023-11-21T12:58:07;3.50;;;2.00;;
84027;SDS011;74111;45.650;25.612;2023-11-21T13:00:44;3.70;;;1.90;;
84027;SDS011;74111;45.650;25.612;2023-11-21T13:03:17;2.50;;;2.00;;
84027;SDS011;74111;45.650;25.612;2023-11-21T13:05:48;4.20;;;2.20;;
84027;SDS011;74111;45.650;25.612;2023-11-21T13:10:52;3.90;;;2.30;;
84027;SDS011;74111;45.650;25.612;2023-11-21T13:13:24;2.80;;;2.00;;
84027;SDS011;74111;45.650;25.612;2023-11-21T13:15:58;7.80;;;2.70;;
84027;SDS011;74111;45.650;25.612;2023-11-21T13:18:33;2.90;;;2.00;;
84027;SDS011;74111;45.650;25.612;2023-11-21T13:21:02;2.50;;;1.80;;
84027;SDS011;74111;45.650;25.612;2023-11-21T13:23:37;3.50;;;2.10;;
84027;SDS011;74111;45.650;25.612;2023-11-21T13:26:06;3.00;;;1.80;;
84027;SDS011;74111;45.650;25.612;2023-11-21T13:28:35;5.40;;;2.50;;
84027;SDS011;74111;45.650;25.612;2023-11-21T13:31:06;4.30;;;2.20;;
84027;SDS011;74111;45.650;25.612;2023-11-21T13:33:39;5.10;;;2.30;;
84027;SDS011;74111;45.650;25.612;2023-11-21T13:36:09;2.90;;;2.30;;
84027;SDS011;74111;45.650;25.612;2023-11-21T13:38:38;3.40;;;2.20;;
84027;SDS011;74111;45.650;25.612;2023-11-21T13:41:11;3.40;;;2.20;;
84027;SDS011;74111;45.650;25.612;2023-11-21T13:43:42;3.60;;;2.40;;
84027;SDS011;74111;45.650;25.612;2023-11-21T13:46:16;3.50;;;2.20;;
84027;SDS011;74111;45.650;25.612;2023-11-21T13:48:50;3.60;;;1.90;;
84027;SDS011;74111;45.650;25.612;2023-11-21T13:51:23;6.40;;;2.20;;
84027;SDS011;74111;45.650;25.612;2023-11-21T13:54:04;4.90;;;2.40;;
84027;SDS011;74111;45.650;25.612;2023-11-21T13:59:08;4.80;;;2.40;;
84027;SDS011;74111;45.650;25.612;2023-11-21T14:01:49;6.10;;;2.40;;
84027;SDS011;74111;45.650;25.612;2023-11-21T14:04:21;4.30;;;2.10;;
84027;SDS011;74111;45.650;25.612;2023-11-21T14:07:10;2.50;;;2.20;;
84027;SDS011;74111;45.650;25.612;2023-11-21T14:09:58;4.50;;;3.10;;
84027;SDS011;74111;45.650;25.612;2023-11-21T14:12:27;7.40;;;3.30;;
84027;SDS011;74111;45.650;25.612;2023-11-21T14:14:56;8.70;;;4.50;;
84027;SDS011;74111;45.650;25.612;2023-11-21T14:17:24;6.10;;;3.30;;
84027;SDS011;74111;45.650;25.612;2023-11-21T14:19:52;8.70;;;3.80;;
84027;SDS011;74111;45.650;25.612;2023-11-21T14:22:24;7.70;;;3.80;;
84027;SDS011;74111;45.650;25.612;2023-11-21T14:24:53;5.20;;;3.70;;
84027;SDS011;74111;45.650;25.612;2023-11-21T14:27:23;7.50;;;3.70;;
84027;SDS011;74111;45.650;25.612;2023-11-21T14:32:20;6.60;;;4.40;;
84027;SDS011;74111;45.650;25.612;2023-11-21T14:34:49;10.70;;;6.30;;
84027;SDS011;74111;45.650;25.612;2023-11-21T14:37:18;12.50;;;8.00;;
84027;SDS011;74111;45.650;25.612;2023-11-21T14:39:47;18.30;;;8.20;;
84027;SDS011;74111;45.650;25.612;2023-11-21T14:42:18;7.40;;;4.80;;
84027;SDS011;74111;45.650;25.612;2023-11-21T14:44:53;7.90;;;5.00;;
84027;SDS011;74111;45.650;25.612;2023-11-21T14:47:23;9.30;;;4.80;;
84027;SDS011;74111;45.650;25.612;2023-11-21T14:49:55;8.70;;;4.50;;
84027;SDS011;74111;45.650;25.612;2023-11-21T14:52:24;9.30;;;4.50;;
84027;SDS011;74111;45.650;25.612;2023-11-21T14:55:03;7.50;;;4.20;;
84027;SDS011;74111;45.650;25.612;2023-11-21T14:57:52;6.10;;;3.90;;
84027;SDS011;74111;45.650;25.612;2023-11-21T15:00:21;8.30;;;4.90;;
84027;SDS011;74111;45.650;25.612;2023-11-21T15:03:19;8.10;;;4.30;;
84027;SDS011;74111;45.650;25.612;2023-11-21T15:06:01;8.40;;;6.00;;
84027;SDS011;74111;45.650;25.612;2023-11-21T15:08:58;10.50;;;6.50;;
84027;SDS011;74111;45.650;25.612;2023-11-21T15:11:29;10.80;;;6.70;;
84027;SDS011;74111;45.650;25.612;2023-11-21T15:13:59;8.90;;;5.80;;
84027;SDS011;74111;45.650;25.612;2023-11-21T15:16:28;12.70;;;5.90;;
84027;SDS011;74111;45.650;25.612;2023-11-21T15:18:56;10.20;;;5.80;;
84027;SDS011;74111;45.650;25.612;2023-11-21T15:21:24;13.00;;;6.10;;
84027;SDS011;74111;45.650;25.612;2023-11-21T15:23:52;13.10;;;6.60;;
84027;SDS011;74111;45.650;25.612;2023-11-21T15:26:20;10.30;;;6.30;;
84027;SDS011;74111;45.650;25.612;2023-11-21T15:28:50;7.40;;;4.80;;
84027;SDS011;74111;45.650;25.612;2023-11-21T15:31:18;5.30;;;4.40;;
84027;SDS011;74111;45.650;25.612;2023-11-21T15:33:51;8.60;;;4.90;;